Leesville, Ohio
Current Conditions -  °F | °C
As of 12:53 PM on Thursday 29 Jan 2015 (Local Time) from KPHD Reporting Station
Overcast Overcast  
Wind Chill: 30°   Ceiling: 4200
Heat Index: 36°   Visibility: 10mi
Dew Point: 31°   Wind: 7mph
Humidity: 82%   Direction: 180°S
Pressure: 29.83"   Gusts: NA
Location:  40.45°N, 81.21°W
Report Text: KPHD 291753Z AUTO 18006KT 10SM OVC042 02/M01 A2983 RMK AO2 RAE25 SLP112 P0002 60009 T00221006 10022 21022 58030
Loading
Personal Weather Stations






























Interactive Weather Map New forecast layout! Learn more

10-Day Weather Forecast

Advertisements
Track Severe Weather on mobile